Chignik Lagoon, Alaska
Current Conditions -  °F | °C
As of 9:56 PM on Saturday 25 Oct 2014 (Local Time) from PAJC Reporting Station
Clear Clear  
Wind Chill: 36°   Ceiling: Unl
Heat Index: 43°   Visibility: 10mi
Dew Point: 30°   Wind: 14mph
Humidity: 61%   Direction: 250°WSW
Pressure: 29.91"   Gusts: 22mph
Location:  56.28°N, 158.51°W
Report Text: PAJC 260556Z AUTO 25012G19KT 10SM CLR 06/M01 A2991 RMK AO1 10080 20060 52007
Loading
Personal Weather Stations






























Interactive Weather Map
Tropical Storm Tracking
New forecast layout! Learn more

10-Day Weather Forecast

Advertisements
Track Severe Weather on mobile